sensor_id;sensor_type;location;lat;lon;timestamp;temperature;humidity
13231;DHT22;6681;53.254;10.398;2023-02-28T00:01:14;-0.10;99.90
13231;DHT22;6681;53.254;10.398;2023-02-28T00:03:41;-0.20;99.90
13231;DHT22;6681;53.254;10.398;2023-02-28T00:06:07;0.50;99.90
13231;DHT22;6681;53.254;10.398;2023-02-28T00:08:34;-0.20;99.90
13231;DHT22;6681;53.254;10.398;2023-02-28T00:11:05;-0.90;99.90
13231;DHT22;6681;53.254;10.398;2023-02-28T00:13:33;1.00;99.90
13231;DHT22;6681;53.254;10.398;2023-02-28T00:16:10;-0.10;99.90
13231;DHT22;6681;53.254;10.398;2023-02-28T00:18:37;-0.30;99.90
13231;DHT22;6681;53.254;10.398;2023-02-28T00:21:03;-0.20;99.90
13231;DHT22;6681;53.254;10.398;2023-02-28T00:23:29;-0.30;99.90
13231;DHT22;6681;53.254;10.398;2023-02-28T00:25:55;0.30;99.90
13231;DHT22;6681;53.254;10.398;2023-02-28T00:28:21;-0.40;99.90
13231;DHT22;6681;53.254;10.398;2023-02-28T00:30:51;-0.50;99.90
13231;DHT22;6681;53.254;10.398;2023-02-28T00:33:17;-0.20;99.90
13231;DHT22;6681;53.254;10.398;2023-02-28T00:35:44;-0.40;99.90
13231;DHT22;6681;53.254;10.398;2023-02-28T00:38:15;-0.50;99.90
13231;DHT22;6681;53.254;10.398;2023-02-28T00:40:41;-0.50;99.90
13231;DHT22;6681;53.254;10.398;2023-02-28T00:43:07;-0.50;99.90
13231;DHT22;6681;53.254;10.398;2023-02-28T00:45:33;-0.50;99.90
13231;DHT22;6681;53.254;10.398;2023-02-28T00:48:02;-0.60;99.90
13231;DHT22;6681;53.254;10.398;2023-02-28T00:50:28;-0.60;99.90
13231;DHT22;6681;53.254;10.398;2023-02-28T00:52:53;-0.60;99.90
13231;DHT22;6681;53.254;10.398;2023-02-28T00:55:19;-0.50;99.90
13231;DHT22;6681;53.254;10.398;2023-02-28T00:57:45;-0.50;99.90
13231;DHT22;6681;53.254;10.398;2023-02-28T01:00:12;-0.50;99.90
13231;DHT22;6681;53.254;10.398;2023-02-28T01:02:40;-0.50;99.90
13231;DHT22;6681;53.254;10.398;2023-02-28T01:05:09;-0.60;99.90
13231;DHT22;6681;53.254;10.398;2023-02-28T01:07:34;-0.60;99.90
13231;DHT22;6681;53.254;10.398;2023-02-28T01:10:00;0.40;99.90
13231;DHT22;6681;53.254;10.398;2023-02-28T01:12:26;0.80;99.90
13231;DHT22;6681;53.254;10.398;2023-02-28T01:14:51;-0.60;99.90
13231;DHT22;6681;53.254;10.398;2023-02-28T01:17:17;-0.50;99.90
13231;DHT22;6681;53.254;10.398;2023-02-28T01:19:53;-0.50;99.90
13231;DHT22;6681;53.254;10.398;2023-02-28T01:22:19;-0.50;99.90
13231;DHT22;6681;53.254;10.398;2023-02-28T01:24:45;1.40;99.90
13231;DHT22;6681;53.254;10.398;2023-02-28T01:27:10;-0.50;99.90
13231;DHT22;6681;53.254;10.398;2023-02-28T01:29:36;-0.60;99.90
13231;DHT22;6681;53.254;10.398;2023-02-28T01:32:02;-0.70;99.90
13231;DHT22;6681;53.254;10.398;2023-02-28T01:34:27;-0.70;99.90
13231;DHT22;6681;53.254;10.398;2023-02-28T01:36:53;-0.60;99.90
13231;DHT22;6681;53.254;10.398;2023-02-28T01:39:19;-0.20;99.90
13231;DHT22;6681;53.254;10.398;2023-02-28T01:41:44;-0.70;99.90
13231;DHT22;6681;53.254;10.398;2023-02-28T01:47:36;-0.60;99.90
13231;DHT22;6681;53.254;10.398;2023-02-28T01:50:07;-0.60;99.90
13231;DHT22;6681;53.254;10.398;2023-02-28T01:52:34;-0.70;99.90
13231;DHT22;6681;53.254;10.398;2023-02-28T01:55:02;-0.70;99.90
13231;DHT22;6681;53.254;10.398;2023-02-28T01:57:34;-0.70;99.90
13231;DHT22;6681;53.254;10.398;2023-02-28T02:00:24;-0.70;99.90
13231;DHT22;6681;53.254;10.398;2023-02-28T02:02:55;-0.80;99.90
13231;DHT22;6681;53.254;10.398;2023-02-28T02:05:25;-0.80;99.90
13231;DHT22;6681;53.254;10.398;2023-02-28T02:07:55;-0.80;99.90
13231;DHT22;6681;53.254;10.398;2023-02-28T02:10:27;-0.80;99.90
13231;DHT22;6681;53.254;10.398;2023-02-28T02:15:48;-0.80;99.90
13231;DHT22;6681;53.254;10.398;2023-02-28T02:27:10;-0.80;99.90
13231;DHT22;6681;53.254;10.398;2023-02-28T02:37:59;-0.90;99.90
13231;DHT22;6681;53.254;10.398;2023-02-28T02:40:41;-0.90;99.90
13231;DHT22;6681;53.254;10.398;2023-02-28T02:43:18;-1.00;99.90
13231;DHT22;6681;53.254;10.398;2023-02-28T02:48:13;-0.70;99.90
13231;DHT22;6681;53.254;10.398;2023-02-28T02:50:48;-0.90;99.90
13231;DHT22;6681;53.254;10.398;2023-02-28T02:53:17;-0.90;99.90
13231;DHT22;6681;53.254;10.398;2023-02-28T02:55:46;0.40;99.90
13231;DHT22;6681;53.254;10.398;2023-02-28T02:58:19;-1.00;99.90
13231;DHT22;6681;53.254;10.398;2023-02-28T03:00:50;-1.00;99.90
13231;DHT22;6681;53.254;10.398;2023-02-28T03:03:19;-0.60;99.90
13231;DHT22;6681;53.254;10.398;2023-02-28T03:05:59;-0.90;99.90
13231;DHT22;6681;53.254;10.398;2023-02-28T03:08:25;-0.90;99.90
13231;DHT22;6681;53.254;10.398;2023-02-28T03:10:57;1.00;99.90
13231;DHT22;6681;53.254;10.398;2023-02-28T03:21:43;-1.10;99.90
13231;DHT22;6681;53.254;10.398;2023-02-28T03:24:18;-1.10;99.90
13231;DHT22;6681;53.254;10.398;2023-02-28T03:26:54;-1.10;99.90
13231;DHT22;6681;53.254;10.398;2023-02-28T03:29:42;-1.10;99.90
13231;DHT22;6681;53.254;10.398;2023-02-28T03:32:18;-1.20;99.90
13231;DHT22;6681;53.254;10.398;2023-02-28T03:35:42;0.10;99.90
13231;DHT22;6681;53.254;10.398;2023-02-28T03:38:16;-1.40;99.90
13231;DHT22;6681;53.254;10.398;2023-02-28T03:40:51;-1.30;99.90
13231;DHT22;6681;53.254;10.398;2023-02-28T03:43:24;-1.20;99.90
13231;DHT22;6681;53.254;10.398;2023-02-28T03:45:51;1.00;99.90
13231;DHT22;6681;53.254;10.398;2023-02-28T03:48:25;0.80;99.90
13231;DHT22;6681;53.254;10.398;2023-02-28T03:50:55;-1.30;99.90
13231;DHT22;6681;53.254;10.398;2023-02-28T03:53:29;-1.40;99.90
13231;DHT22;6681;53.254;10.398;2023-02-28T03:56:01;-1.30;99.90
13231;DHT22;6681;53.254;10.398;2023-02-28T03:58:49;-1.40;99.90
13231;DHT22;6681;53.254;10.398;2023-02-28T04:01:27;-1.40;99.90
13231;DHT22;6681;53.254;10.398;2023-02-28T04:03:56;-1.30;99.90
13231;DHT22;6681;53.254;10.398;2023-02-28T04:06:23;-1.30;99.90
13231;DHT22;6681;53.254;10.398;2023-02-28T04:08:49;-1.10;99.90
13231;DHT22;6681;53.254;10.398;2023-02-28T04:11:18;-1.10;99.90
13231;DHT22;6681;53.254;10.398;2023-02-28T04:13:44;-1.40;99.90
13231;DHT22;6681;53.254;10.398;2023-02-28T04:16:10;-1.40;99.90
13231;DHT22;6681;53.254;10.398;2023-02-28T04:18:40;-1.40;99.90
13231;DHT22;6681;53.254;10.398;2023-02-28T04:21:08;-1.40;99.90
13231;DHT22;6681;53.254;10.398;2023-02-28T04:23:34;-1.40;99.90
13231;DHT22;6681;53.254;10.398;2023-02-28T04:25:59;-1.40;99.90
13231;DHT22;6681;53.254;10.398;2023-02-28T04:28:25;-1.40;99.90
13231;DHT22;6681;53.254;10.398;2023-02-28T04:31:02;-1.40;99.90
13231;DHT22;6681;53.254;10.398;2023-02-28T04:33:30;-1.50;99.90
13231;DHT22;6681;53.254;10.398;2023-02-28T04:36:05;-1.40;99.90
13231;DHT22;6681;53.254;10.398;2023-02-28T04:38:43;-1.30;99.90
13231;DHT22;6681;53.254;10.398;2023-02-28T04:41:09;-1.40;99.90
13231;DHT22;6681;53.254;10.398;2023-02-28T04:43:34;-1.40;99.90
13231;DHT22;6681;53.254;10.398;2023-02-28T04:46:02;-1.60;99.90
13231;DHT22;6681;53.254;10.398;2023-02-28T04:48:34;-1.60;99.90
13231;DHT22;6681;53.254;10.398;2023-02-28T04:51:05;-1.00;99.90
13231;DHT22;6681;53.254;10.398;2023-02-28T04:53:31;1.20;99.90
13231;DHT22;6681;53.254;10.398;2023-02-28T04:55:57;-1.70;99.90
13231;DHT22;6681;53.254;10.398;2023-02-28T04:58:24;-1.60;99.90
13231;DHT22;6681;53.254;10.398;2023-02-28T05:00:53;-1.60;99.90
13231;DHT22;6681;53.254;10.398;2023-02-28T05:03:20;-1.60;99.90
13231;DHT22;6681;53.254;10.398;2023-02-28T05:05:47;-1.50;99.90
13231;DHT22;6681;53.254;10.398;2023-02-28T05:08:13;-1.60;99.90
13231;DHT22;6681;53.254;10.398;2023-02-28T05:10:39;-1.60;99.90
13231;DHT22;6681;53.254;10.398;2023-02-28T05:13:04;-1.60;99.90
13231;DHT22;6681;53.254;10.398;2023-02-28T05:15:30;-1.60;99.90
13231;DHT22;6681;53.254;10.398;2023-02-28T05:17:56;-1.70;99.90
13231;DHT22;6681;53.254;10.398;2023-02-28T05:20:21;-1.50;99.90
13231;DHT22;6681;53.254;10.398;2023-02-28T05:22:47;-1.70;99.90
13231;DHT22;6681;53.254;10.398;2023-02-28T05:25:19;-1.70;99.90
13231;DHT22;6681;53.254;10.398;2023-02-28T05:27:45;-1.70;99.90
13231;DHT22;6681;53.254;10.398;2023-02-28T05:30:11;-1.70;99.90
13231;DHT22;6681;53.254;10.398;2023-02-28T05:32:38;-1.70;99.90
13231;DHT22;6681;53.254;10.398;2023-02-28T05:35:04;-1.70;99.90
13231;DHT22;6681;53.254;10.398;2023-02-28T05:37:31;-1.80;99.90
13231;DHT22;6681;53.254;10.398;2023-02-28T05:39:57;-0.70;99.90
13231;DHT22;6681;53.254;10.398;2023-02-28T05:42:22;-1.70;99.90
13231;DHT22;6681;53.254;10.398;2023-02-28T05:44:48;-1.30;99.90
13231;DHT22;6681;53.254;10.398;2023-02-28T05:47:13;-1.80;99.90
13231;DHT22;6681;53.254;10.398;2023-02-28T05:49:41;-1.80;99.90
13231;DHT22;6681;53.254;10.398;2023-02-28T05:52:07;-1.80;99.90
13231;DHT22;6681;53.254;10.398;2023-02-28T05:54:33;-1.90;99.90
13231;DHT22;6681;53.254;10.398;2023-02-28T05:56:58;-1.90;99.90
13231;DHT22;6681;53.254;10.398;2023-02-28T05:59:24;-1.90;99.90
13231;DHT22;6681;53.254;10.398;2023-02-28T06:01:49;-1.90;99.90
13231;DHT22;6681;53.254;10.398;2023-02-28T06:04:17;-1.90;99.90
13231;DHT22;6681;53.254;10.398;2023-02-28T06:06:48;-1.90;99.90
13231;DHT22;6681;53.254;10.398;2023-02-28T06:09:14;-1.90;99.90
13231;DHT22;6681;53.254;10.398;2023-02-28T06:11:40;-1.90;99.90
13231;DHT22;6681;53.254;10.398;2023-02-28T06:14:07;-2.00;99.90
13231;DHT22;6681;53.254;10.398;2023-02-28T06:16:34;-1.90;99.90
13231;DHT22;6681;53.254;10.398;2023-02-28T06:19:03;-2.00;99.90
13231;DHT22;6681;53.254;10.398;2023-02-28T06:21:29;-2.00;99.90
13231;DHT22;6681;53.254;10.398;2023-02-28T06:23:57;-2.00;99.90
13231;DHT22;6681;53.254;10.398;2023-02-28T06:26:26;-2.00;99.90
13231;DHT22;6681;53.254;10.398;2023-02-28T06:28:56;-2.00;99.90
13231;DHT22;6681;53.254;10.398;2023-02-28T06:31:22;-2.00;99.90
13231;DHT22;6681;53.254;10.398;2023-02-28T06:33:48;-2.10;99.90
13231;DHT22;6681;53.254;10.398;2023-02-28T06:36:15;-2.00;99.90
13231;DHT22;6681;53.254;10.398;2023-02-28T06:38:41;-2.00;99.90
13231;DHT22;6681;53.254;10.398;2023-02-28T06:41:08;-2.00;99.90
13231;DHT22;6681;53.254;10.398;2023-02-28T06:43:41;-2.00;99.90
13231;DHT22;6681;53.254;10.398;2023-02-28T06:46:13;-1.90;99.90
13231;DHT22;6681;53.254;10.398;2023-02-28T06:48:40;-1.90;99.90
13231;DHT22;6681;53.254;10.398;2023-02-28T06:51:14;-1.90;99.90
13231;DHT22;6681;53.254;10.398;2023-02-28T06:53:41;-2.00;99.90
13231;DHT22;6681;53.254;10.398;2023-02-28T06:56:08;-2.00;99.90
13231;DHT22;6681;53.254;10.398;2023-02-28T06:58:35;-2.00;99.90
13231;DHT22;6681;53.254;10.398;2023-02-28T07:01:01;-2.00;99.90
13231;DHT22;6681;53.254;10.398;2023-02-28T07:03:27;-2.00;99.90
13231;DHT22;6681;53.254;10.398;2023-02-28T07:05:52;-2.10;99.90
13231;DHT22;6681;53.254;10.398;2023-02-28T07:08:18;-2.10;99.90
13231;DHT22;6681;53.254;10.398;2023-02-28T07:10:44;-2.00;99.90
13231;DHT22;6681;53.254;10.398;2023-02-28T07:13:10;-2.00;99.90
13231;DHT22;6681;53.254;10.398;2023-02-28T07:15:36;-2.00;99.90
13231;DHT22;6681;53.254;10.398;2023-02-28T07:18:05;-2.00;99.90
13231;DHT22;6681;53.254;10.398;2023-02-28T07:20:31;-0.80;99.90
13231;DHT22;6681;53.254;10.398;2023-02-28T07:22:57;-2.00;99.90
13231;DHT22;6681;53.254;10.398;2023-02-28T07:25:23;-1.90;99.90
13231;DHT22;6681;53.254;10.398;2023-02-28T07:27:50;-1.90;99.90
13231;DHT22;6681;53.254;10.398;2023-02-28T07:30:16;-1.90;99.90
13231;DHT22;6681;53.254;10.398;2023-02-28T07:32:41;-2.00;99.90
13231;DHT22;6681;53.254;10.398;2023-02-28T07:35:07;-1.90;99.90
13231;DHT22;6681;53.254;10.398;2023-02-28T07:37:33;-1.90;99.90
13231;DHT22;6681;53.254;10.398;2023-02-28T07:40:07;-1.90;99.90
13231;DHT22;6681;53.254;10.398;2023-02-28T07:42:34;-2.00;99.90
13231;DHT22;6681;53.254;10.398;2023-02-28T07:45:01;-1.90;99.90
13231;DHT22;6681;53.254;10.398;2023-02-28T07:47:28;-1.90;99.90
13231;DHT22;6681;53.254;10.398;2023-02-28T07:49:54;-1.80;99.90
13231;DHT22;6681;53.254;10.398;2023-02-28T07:52:19;-1.90;99.90
13231;DHT22;6681;53.254;10.398;2023-02-28T07:54:45;-1.40;99.90
13231;DHT22;6681;53.254;10.398;2023-02-28T07:57:10;-1.90;99.90
13231;DHT22;6681;53.254;10.398;2023-02-28T07:59:36;-1.80;99.90
13231;DHT22;6681;53.254;10.398;2023-02-28T08:02:02;-1.70;99.90
13231;DHT22;6681;53.254;10.398;2023-02-28T08:04:27;-1.70;99.90
13231;DHT22;6681;53.254;10.398;2023-02-28T08:06:54;0.10;99.90
13231;DHT22;6681;53.254;10.398;2023-02-28T08:09:21;-1.70;99.90
13231;DHT22;6681;53.254;10.398;2023-02-28T08:11:47;-1.50;99.90
13231;DHT22;6681;53.254;10.398;2023-02-28T08:14:12;-1.60;99.90
13231;DHT22;6681;53.254;10.398;2023-02-28T08:16:39;-0.30;99.90
13231;DHT22;6681;53.254;10.398;2023-02-28T08:19:04;-3.20;99.90
13231;DHT22;6681;53.254;10.398;2023-02-28T08:21:30;-1.40;99.90
13231;DHT22;6681;53.254;10.398;2023-02-28T08:23:56;-1.30;99.90
13231;DHT22;6681;53.254;10.398;2023-02-28T08:26:22;-1.30;99.90
13231;DHT22;6681;53.254;10.398;2023-02-28T08:28:48;-1.20;99.90
13231;DHT22;6681;53.254;10.398;2023-02-28T08:31:15;-1.10;99.90
13231;DHT22;6681;53.254;10.398;2023-02-28T08:33:41;-1.00;99.90
13231;DHT22;6681;53.254;10.398;2023-02-28T08:36:08;-1.00;99.90
13231;DHT22;6681;53.254;10.398;2023-02-28T08:38:35;-0.90;99.90
13231;DHT22;6681;53.254;10.398;2023-02-28T08:41:04;-0.80;99.90
13231;DHT22;6681;53.254;10.398;2023-02-28T08:43:33;-0.70;99.90
13231;DHT22;6681;53.254;10.398;2023-02-28T08:45:59;-0.60;99.90
13231;DHT22;6681;53.254;10.398;2023-02-28T08:48:26;-0.40;99.90
13231;DHT22;6681;53.254;10.398;2023-02-28T08:51:04;-0.40;99.90
13231;DHT22;6681;53.254;10.398;2023-02-28T08:53:30;0.80;99.90
13231;DHT22;6681;53.254;10.398;2023-02-28T08:58:23;-0.20;99.90
13231;DHT22;6681;53.254;10.398;2023-02-28T09:00:48;-0.10;99.90
13231;DHT22;6681;53.254;10.398;2023-02-28T09:03:14;-0.10;99.90
13231;DHT22;6681;53.254;10.398;2023-02-28T09:05:39;-0.10;99.90
13231;DHT22;6681;53.254;10.398;2023-02-28T09:08:06;2.20;99.90
13231;DHT22;6681;53.254;10.398;2023-02-28T09:10:31;0.20;99.90
13231;DHT22;6681;53.254;10.398;2023-02-28T09:12:57;0.20;99.90
13231;DHT22;6681;53.254;10.398;2023-02-28T09:15:22;0.50;99.90
13231;DHT22;6681;53.254;10.398;2023-02-28T09:17:48;0.50;99.90
13231;DHT22;6681;53.254;10.398;2023-02-28T09:20:15;2.10;99.90
13231;DHT22;6681;53.254;10.398;2023-02-28T09:22:40;0.80;99.90
13231;DHT22;6681;53.254;10.398;2023-02-28T09:25:06;0.80;99.90
13231;DHT22;6681;53.254;10.398;2023-02-28T09:27:32;0.90;99.90
13231;DHT22;6681;53.254;10.398;2023-02-28T09:29:58;2.40;99.90
13231;DHT22;6681;53.254;10.398;2023-02-28T09:32:23;1.00;99.90
13231;DHT22;6681;53.254;10.398;2023-02-28T09:34:49;3.40;99.90
13231;DHT22;6681;53.254;10.398;2023-02-28T09:37:14;2.20;99.90
13231;DHT22;6681;53.254;10.398;2023-02-28T09:39:40;1.70;99.90
13231;DHT22;6681;53.254;10.398;2023-02-28T09:42:11;2.10;99.90
13231;DHT22;6681;53.254;10.398;2023-02-28T09:44:44;1.80;99.90
13231;DHT22;6681;53.254;10.398;2023-02-28T09:47:16;2.00;99.90
13231;DHT22;6681;53.254;10.398;2023-02-28T09:49:46;2.10;99.90
13231;DHT22;6681;53.254;10.398;2023-02-28T09:52:17;2.70;99.90
13231;DHT22;6681;53.254;10.398;2023-02-28T09:54:45;2.30;99.90
13231;DHT22;6681;53.254;10.398;2023-02-28T10:05:26;2.50;99.90
13231;DHT22;6681;53.254;10.398;2023-02-28T10:08:15;2.50;99.90
13231;DHT22;6681;53.254;10.398;2023-02-28T10:10:48;2.50;99.90
13231;DHT22;6681;53.254;10.398;2023-02-28T10:13:34;2.70;99.90
13231;DHT22;6681;53.254;10.398;2023-02-28T10:16:11;2.90;99.90
13231;DHT22;6681;53.254;10.398;2023-02-28T10:18:52;3.00;99.90
13231;DHT22;6681;53.254;10.398;2023-02-28T10:21:35;2.90;99.90
13231;DHT22;6681;53.254;10.398;2023-02-28T10:24:26;3.00;99.90
13231;DHT22;6681;53.254;10.398;2023-02-28T10:26:59;3.00;99.90
13231;DHT22;6681;53.254;10.398;2023-02-28T10:29:26;3.20;99.90
13231;DHT22;6681;53.254;10.398;2023-02-28T10:31:51;3.40;99.90
13231;DHT22;6681;53.254;10.398;2023-02-28T10:34:17;3.60;99.90
13231;DHT22;6681;53.254;10.398;2023-02-28T10:36:43;3.60;99.90
13231;DHT22;6681;53.254;10.398;2023-02-28T10:39:42;3.80;99.90
13231;DHT22;6681;53.254;10.398;2023-02-28T10:42:29;3.80;99.90
13231;DHT22;6681;53.254;10.398;2023-02-28T10:45:15;4.10;99.90
13231;DHT22;6681;53.254;10.398;2023-02-28T10:47:57;3.90;99.90
13231;DHT22;6681;53.254;10.398;2023-02-28T10:56:03;4.00;99.90
13231;DHT22;6681;53.254;10.398;2023-02-28T11:01:19;5.00;99.90
13231;DHT22;6681;53.254;10.398;2023-02-28T11:03:45;4.30;99.90
13231;DHT22;6681;53.254;10.398;2023-02-28T11:06:18;4.60;99.90
13231;DHT22;6681;53.254;10.398;2023-02-28T11:08:47;6.00;99.90
13231;DHT22;6681;53.254;10.398;2023-02-28T11:11:13;4.70;99.90
13231;DHT22;6681;53.254;10.398;2023-02-28T11:13:39;4.70;99.90
13231;DHT22;6681;53.254;10.398;2023-02-28T11:16:07;4.80;99.90
13231;DHT22;6681;53.254;10.398;2023-02-28T11:18:54;4.70;99.90
13231;DHT22;6681;53.254;10.398;2023-02-28T11:21:25;4.80;99.90
13231;DHT22;6681;53.254;10.398;2023-02-28T11:24:04;4.90;99.90
13231;DHT22;6681;53.254;10.398;2023-02-28T11:26:49;5.00;99.90
13231;DHT22;6681;53.254;10.398;2023-02-28T11:29:23;4.90;99.90
13231;DHT22;6681;53.254;10.398;2023-02-28T11:34:31;5.00;99.90
13231;DHT22;6681;53.254;10.398;2023-02-28T11:36:59;5.10;99.90
13231;DHT22;6681;53.254;10.398;2023-02-28T11:39:26;5.50;99.90
13231;DHT22;6681;53.254;10.398;2023-02-28T11:47:21;5.30;99.90
13231;DHT22;6681;53.254;10.398;2023-02-28T12:03:48;5.70;99.90
13231;DHT22;6681;53.254;10.398;2023-02-28T12:11:56;5.70;99.90
13231;DHT22;6681;53.254;10.398;2023-02-28T12:14:57;5.80;99.90
13231;DHT22;6681;53.254;10.398;2023-02-28T12:20:38;5.90;99.90
13231;DHT22;6681;53.254;10.398;2023-02-28T12:26:19;6.00;99.90
13231;DHT22;6681;53.254;10.398;2023-02-28T12:31:40;6.00;99.90
13231;DHT22;6681;53.254;10.398;2023-02-28T12:34:12;6.10;99.90
13231;DHT22;6681;53.254;10.398;2023-02-28T12:36:39;6.10;99.90
13231;DHT22;6681;53.254;10.398;2023-02-28T12:39:30;6.20;99.90
13231;DHT22;6681;53.254;10.398;2023-02-28T12:42:27;6.20;99.90
13231;DHT22;6681;53.254;10.398;2023-02-28T12:48:01;6.30;99.90
13231;DHT22;6681;53.254;10.398;2023-02-28T12:50:29;6.40;99.90
13231;DHT22;6681;53.254;10.398;2023-02-28T13:00:38;6.60;99.90
13231;DHT22;6681;53.254;10.398;2023-02-28T13:03:31;6.70;99.90
13231;DHT22;6681;53.254;10.398;2023-02-28T13:09:11;6.80;99.90
13231;DHT22;6681;53.254;10.398;2023-02-28T13:14:20;7.10;99.90
13231;DHT22;6681;53.254;10.398;2023-02-28T13:17:01;7.20;99.90
13231;DHT22;6681;53.254;10.398;2023-02-28T13:19:30;7.30;99.90
13231;DHT22;6681;53.254;10.398;2023-02-28T13:21:57;7.30;99.90
13231;DHT22;6681;53.254;10.398;2023-02-28T13:24:45;9.20;99.90
13231;DHT22;6681;53.254;10.398;2023-02-28T13:27:24;7.80;99.90
13231;DHT22;6681;53.254;10.398;2023-02-28T13:29:56;7.70;99.90
13231;DHT22;6681;53.254;10.398;2023-02-28T13:39:55;7.50;99.90
13231;DHT22;6681;53.254;10.398;2023-02-28T13:42:34;7.40;99.90
13231;DHT22;6681;53.254;10.398;2023-02-28T13:47:45;8.20;99.90
13231;DHT22;6681;53.254;10.398;2023-02-28T13:50:29;8.10;99.90
13231;DHT22;6681;53.254;10.398;2023-02-28T14:02:23;7.80;99.90
13231;DHT22;6681;53.254;10.398;2023-02-28T14:04:50;7.70;99.90
13231;DHT22;6681;53.254;10.398;2023-02-28T14:07:40;10.00;99.90
13231;DHT22;6681;53.254;10.398;2023-02-28T14:10:21;7.70;99.90
13231;DHT22;6681;53.254;10.398;2023-02-28T14:12:59;7.90;99.90
13231;DHT22;6681;53.254;10.398;2023-02-28T14:15:50;8.60;99.90
13231;DHT22;6681;53.254;10.398;2023-02-28T14:18:24;9.00;99.90
13231;DHT22;6681;53.254;10.398;2023-02-28T14:20:55;9.30;99.90
13231;DHT22;6681;53.254;10.398;2023-02-28T14:29:30;8.90;99.90
13231;DHT22;6681;53.254;10.398;2023-02-28T14:32:10;9.80;99.90
13231;DHT22;6681;53.254;10.398;2023-02-28T14:34:55;10.00;99.90
13231;DHT22;6681;53.254;10.398;2023-02-28T14:37:29;10.30;99.90
13231;DHT22;6681;53.254;10.398;2023-02-28T14:39:57;10.40;99.90
13231;DHT22;6681;53.254;10.398;2023-02-28T14:42:35;9.60;99.90
13231;DHT22;6681;53.254;10.398;2023-02-28T14:45:04;9.00;99.90
13231;DHT22;6681;53.254;10.398;2023-02-28T14:47:34;8.70;99.90
13231;DHT22;6681;53.254;10.398;2023-02-28T14:50:02;8.80;99.90
13231;DHT22;6681;53.254;10.398;2023-02-28T14:52:31;8.20;99.90
13231;DHT22;6681;53.254;10.398;2023-02-28T14:55:00;9.10;99.90
13231;DHT22;6681;53.254;10.398;2023-02-28T14:57:27;8.50;99.90
13231;DHT22;6681;53.254;10.398;2023-02-28T15:02:37;8.10;99.90
13231;DHT22;6681;53.254;10.398;2023-02-28T15:05:16;7.90;99.90
13231;DHT22;6681;53.254;10.398;2023-02-28T15:07:45;8.10;99.90
13231;DHT22;6681;53.254;10.398;2023-02-28T15:10:22;8.00;99.90
13231;DHT22;6681;53.254;10.398;2023-02-28T15:12:52;8.00;99.90
13231;DHT22;6681;53.254;10.398;2023-02-28T15:15:20;7.70;99.90
13231;DHT22;6681;53.254;10.398;2023-02-28T15:17:50;7.60;99.90
13231;DHT22;6681;53.254;10.398;2023-02-28T15:20:17;7.70;99.90
13231;DHT22;6681;53.254;10.398;2023-02-28T15:22:46;7.60;99.90
13231;DHT22;6681;53.254;10.398;2023-02-28T15:25:17;7.40;99.90
13231;DHT22;6681;53.254;10.398;2023-02-28T15:27:53;7.30;99.90
13231;DHT22;6681;53.254;10.398;2023-02-28T15:30:25;7.10;99.90
13231;DHT22;6681;53.254;10.398;2023-02-28T15:35:34;6.90;99.90
13231;DHT22;6681;53.254;10.398;2023-02-28T15:40:49;6.80;99.90
13231;DHT22;6681;53.254;10.398;2023-02-28T15:43:26;7.00;99.90
13231;DHT22;6681;53.254;10.398;2023-02-28T15:46:12;6.50;99.90
13231;DHT22;6681;53.254;10.398;2023-02-28T15:48:49;6.50;99.90
13231;DHT22;6681;53.254;10.398;2023-02-28T15:53:57;6.30;99.90
13231;DHT22;6681;53.254;10.398;2023-02-28T15:56:29;6.30;99.90
13231;DHT22;6681;53.254;10.398;2023-02-28T15:58:58;6.20;99.90
13231;DHT22;6681;53.254;10.398;2023-02-28T16:01:29;6.20;99.90
13231;DHT22;6681;53.254;10.398;2023-02-28T16:03:59;6.20;99.90
13231;DHT22;6681;53.254;10.398;2023-02-28T16:09:17;6.00;99.90
13231;DHT22;6681;53.254;10.398;2023-02-28T16:11:48;6.00;99.90
13231;DHT22;6681;53.254;10.398;2023-02-28T16:14:26;5.90;99.90
13231;DHT22;6681;53.254;10.398;2023-02-28T16:17:07;5.80;99.90
13231;DHT22;6681;53.254;10.398;2023-02-28T16:19:34;6.10;99.90
13231;DHT22;6681;53.254;10.398;2023-02-28T16:22:00;5.70;99.90
13231;DHT22;6681;53.254;10.398;2023-02-28T16:24:26;5.70;99.90
13231;DHT22;6681;53.254;10.398;2023-02-28T16:26:53;5.70;99.90
13231;DHT22;6681;53.254;10.398;2023-02-28T16:29:32;5.60;99.90
13231;DHT22;6681;53.254;10.398;2023-02-28T16:32:00;5.60;99.90
13231;DHT22;6681;53.254;10.398;2023-02-28T16:34:27;5.60;99.90
13231;DHT22;6681;53.254;10.398;2023-02-28T16:36:52;5.60;99.90
13231;DHT22;6681;53.254;10.398;2023-02-28T16:39:18;5.60;99.90
13231;DHT22;6681;53.254;10.398;2023-02-28T16:41:47;5.50;99.90
13231;DHT22;6681;53.254;10.398;2023-02-28T16:46:45;5.40;99.90
13231;DHT22;6681;53.254;10.398;2023-02-28T16:49:12;5.40;99.90
13231;DHT22;6681;53.254;10.398;2023-02-28T16:51:38;5.40;99.90
13231;DHT22;6681;53.254;10.398;2023-02-28T16:54:04;5.70;99.90
13231;DHT22;6681;53.254;10.398;2023-02-28T16:56:29;5.30;99.90
13231;DHT22;6681;53.254;10.398;2023-02-28T16:58:59;5.30;99.90
13231;DHT22;6681;53.254;10.398;2023-02-28T17:01:25;5.20;99.90
13231;DHT22;6681;53.254;10.398;2023-02-28T17:03:53;5.10;99.90
13231;DHT22;6681;53.254;10.398;2023-02-28T17:06:26;5.10;99.90
13231;DHT22;6681;53.254;10.398;2023-02-28T17:08:56;5.00;99.90
13231;DHT22;6681;53.254;10.398;2023-02-28T17:11:22;5.00;99.90
13231;DHT22;6681;53.254;10.398;2023-02-28T17:13:48;4.90;99.90
13231;DHT22;6681;53.254;10.398;2023-02-28T17:16:27;4.90;99.90
13231;DHT22;6681;53.254;10.398;2023-02-28T17:19:00;4.90;99.90
13231;DHT22;6681;53.254;10.398;2023-02-28T17:21:25;4.90;99.90
13231;DHT22;6681;53.254;10.398;2023-02-28T17:23:51;4.80;99.90
13231;DHT22;6681;53.254;10.398;2023-02-28T17:26:19;5.20;99.90
13231;DHT22;6681;53.254;10.398;2023-02-28T17:28:46;6.00;99.90
13231;DHT22;6681;53.254;10.398;2023-02-28T17:31:12;4.70;99.90
13231;DHT22;6681;53.254;10.398;2023-02-28T17:33:38;4.60;99.90
13231;DHT22;6681;53.254;10.398;2023-02-28T17:36:04;4.50;99.90
13231;DHT22;6681;53.254;10.398;2023-02-28T17:38:30;4.50;99.90
13231;DHT22;6681;53.254;10.398;2023-02-28T17:40:56;4.20;99.90
13231;DHT22;6681;53.254;10.398;2023-02-28T17:43:25;5.60;99.90
13231;DHT22;6681;53.254;10.398;2023-02-28T17:45:52;5.90;99.90
13231;DHT22;6681;53.254;10.398;2023-02-28T17:48:18;5.20;99.90
13231;DHT22;6681;53.254;10.398;2023-02-28T17:50:43;5.70;99.90
13231;DHT22;6681;53.254;10.398;2023-02-28T17:53:09;4.30;99.90
13231;DHT22;6681;53.254;10.398;2023-02-28T17:55:35;4.10;99.90
13231;DHT22;6681;53.254;10.398;2023-02-28T17:58:01;5.20;99.90
13231;DHT22;6681;53.254;10.398;2023-02-28T18:00:28;4.00;99.90
13231;DHT22;6681;53.254;10.398;2023-02-28T18:02:54;3.90;99.90
13231;DHT22;6681;53.254;10.398;2023-02-28T18:05:20;3.90;99.90
13231;DHT22;6681;53.254;10.398;2023-02-28T18:07:46;4.40;99.90
13231;DHT22;6681;53.254;10.398;2023-02-28T18:10:21;3.80;99.90
13231;DHT22;6681;53.254;10.398;2023-02-28T18:12:48;3.90;99.90
13231;DHT22;6681;53.254;10.398;2023-02-28T18:15:18;4.90;99.90
13231;DHT22;6681;53.254;10.398;2023-02-28T18:17:48;3.70;99.90
13231;DHT22;6681;53.254;10.398;2023-02-28T18:20:14;4.60;99.90
13231;DHT22;6681;53.254;10.398;2023-02-28T18:22:41;3.50;99.90